sensor_id;sensor_type;location;lat;lon;timestamp;P1;durP1;ratioP1;P2;durP2;ratioP2
55364;SDS011;41245;45.384;20.390;2022-09-03T00:00:11;14.95;;;10.00;;
55364;SDS011;41245;45.384;20.390;2022-09-03T00:02:41;12.95;;;9.18;;
55364;SDS011;41245;45.384;20.390;2022-09-03T00:05:23;11.60;;;9.02;;
55364;SDS011;41245;45.384;20.390;2022-09-03T00:11:09;11.30;;;8.98;;
55364;SDS011;41245;45.384;20.390;2022-09-03T00:16:12;11.18;;;9.93;;
55364;SDS011;41245;45.384;20.390;2022-09-03T00:18:43;12.15;;;10.00;;
55364;SDS011;41245;45.384;20.390;2022-09-03T00:21:17;10.88;;;9.80;;
55364;SDS011;41245;45.384;20.390;2022-09-03T00:24:06;9.98;;;8.60;;
55364;SDS011;41245;45.384;20.390;2022-09-03T00:29:04;10.20;;;9.20;;
55364;SDS011;41245;45.384;20.390;2022-09-03T00:31:49;13.07;;;9.52;;
55364;SDS011;41245;45.384;20.390;2022-09-03T00:36:54;11.98;;;9.35;;
55364;SDS011;41245;45.384;20.390;2022-09-03T00:39:21;10.95;;;9.32;;
55364;SDS011;41245;45.384;20.390;2022-09-03T00:41:54;10.48;;;9.40;;
55364;SDS011;41245;45.384;20.390;2022-09-03T00:44:35;11.60;;;10.40;;
55364;SDS011;41245;45.384;20.390;2022-09-03T00:50:16;14.02;;;11.57;;
55364;SDS011;41245;45.384;20.390;2022-09-03T00:56:46;15.32;;;13.32;;
55364;SDS011;41245;45.384;20.390;2022-09-03T01:01:53;15.00;;;10.35;;
55364;SDS011;41245;45.384;20.390;2022-09-03T01:04:57;14.73;;;11.30;;
55364;SDS011;41245;45.384;20.390;2022-09-03T01:13:40;13.32;;;11.32;;
55364;SDS011;41245;45.384;20.390;2022-09-03T01:25:13;12.07;;;10.77;;
55364;SDS011;41245;45.384;20.390;2022-09-03T01:30:14;14.90;;;10.20;;
55364;SDS011;41245;45.384;20.390;2022-09-03T01:44:13;11.85;;;10.32;;
55364;SDS011;41245;45.384;20.390;2022-09-03T01:47:04;12.88;;;10.05;;
55364;SDS011;41245;45.384;20.390;2022-09-03T01:49:56;12.17;;;10.33;;
55364;SDS011;41245;45.384;20.390;2022-09-03T01:52:45;11.80;;;10.55;;
55364;SDS011;41245;45.384;20.390;2022-09-03T01:58:20;16.58;;;9.38;;
55364;SDS011;41245;45.384;20.390;2022-09-03T02:01:04;13.32;;;10.10;;
55364;SDS011;41245;45.384;20.390;2022-09-03T02:03:38;13.02;;;11.43;;
55364;SDS011;41245;45.384;20.390;2022-09-03T02:06:07;16.02;;;11.13;;
55364;SDS011;41245;45.384;20.390;2022-09-03T02:08:34;11.13;;;9.98;;
55364;SDS011;41245;45.384;20.390;2022-09-03T02:11:00;13.40;;;10.02;;
55364;SDS011;41245;45.384;20.390;2022-09-03T02:13:30;13.13;;;10.45;;
55364;SDS011;41245;45.384;20.390;2022-09-03T02:19:00;16.77;;;11.15;;
55364;SDS011;41245;45.384;20.390;2022-09-03T02:21:33;18.10;;;11.10;;
55364;SDS011;41245;45.384;20.390;2022-09-03T02:24:02;14.15;;;11.75;;
55364;SDS011;41245;45.384;20.390;2022-09-03T02:26:29;13.90;;;11.13;;
55364;SDS011;41245;45.384;20.390;2022-09-03T02:28:55;14.85;;;11.93;;
55364;SDS011;41245;45.384;20.390;2022-09-03T02:31:21;13.50;;;11.98;;
55364;SDS011;41245;45.384;20.390;2022-09-03T02:33:48;18.92;;;12.25;;
55364;SDS011;41245;45.384;20.390;2022-09-03T02:36:17;14.18;;;11.23;;
55364;SDS011;41245;45.384;20.390;2022-09-03T02:41:12;12.98;;;11.13;;
55364;SDS011;41245;45.384;20.390;2022-09-03T02:44:40;14.45;;;11.63;;
55364;SDS011;41245;45.384;20.390;2022-09-03T02:46:52;15.93;;;12.13;;
55364;SDS011;41245;45.384;20.390;2022-09-03T02:49:22;14.98;;;12.05;;
55364;SDS011;41245;45.384;20.390;2022-09-03T02:51:48;16.23;;;11.00;;
55364;SDS011;41245;45.384;20.390;2022-09-03T02:54:13;13.68;;;12.02;;
55364;SDS011;41245;45.384;20.390;2022-09-03T02:56:39;13.30;;;11.65;;
55364;SDS011;41245;45.384;20.390;2022-09-03T02:59:06;15.52;;;12.63;;
55364;SDS011;41245;45.384;20.390;2022-09-03T03:01:33;16.02;;;13.35;;
55364;SDS011;41245;45.384;20.390;2022-09-03T03:03:59;16.70;;;12.93;;
55364;SDS011;41245;45.384;20.390;2022-09-03T03:06:25;17.48;;;13.23;;
55364;SDS011;41245;45.384;20.390;2022-09-03T03:08:51;14.15;;;12.65;;
55364;SDS011;41245;45.384;20.390;2022-09-03T03:11:19;18.02;;;14.20;;
55364;SDS011;41245;45.384;20.390;2022-09-03T03:13:47;18.50;;;14.68;;
55364;SDS011;41245;45.384;20.390;2022-09-03T03:16:13;17.30;;;13.13;;
55364;SDS011;41245;45.384;20.390;2022-09-03T03:18:40;18.58;;;13.43;;
55364;SDS011;41245;45.384;20.390;2022-09-03T03:21:11;14.85;;;13.25;;
55364;SDS011;41245;45.384;20.390;2022-09-03T03:23:39;17.17;;;13.38;;
55364;SDS011;41245;45.384;20.390;2022-09-03T03:26:05;14.93;;;12.88;;
55364;SDS011;41245;45.384;20.390;2022-09-03T03:28:33;17.27;;;13.55;;
55364;SDS011;41245;45.384;20.390;2022-09-03T03:31:06;20.90;;;12.60;;
55364;SDS011;41245;45.384;20.390;2022-09-03T03:33:36;15.55;;;13.25;;
55364;SDS011;41245;45.384;20.390;2022-09-03T03:36:13;14.98;;;12.40;;
55364;SDS011;41245;45.384;20.390;2022-09-03T03:38:40;17.77;;;12.93;;
55364;SDS011;41245;45.384;20.390;2022-09-03T03:41:11;16.35;;;13.15;;
55364;SDS011;41245;45.384;20.390;2022-09-03T03:43:37;21.50;;;12.93;;
55364;SDS011;41245;45.384;20.390;2022-09-03T03:46:03;15.02;;;13.52;;
55364;SDS011;41245;45.384;20.390;2022-09-03T03:48:29;19.40;;;14.35;;
55364;SDS011;41245;45.384;20.390;2022-09-03T03:50:59;17.42;;;14.85;;
55364;SDS011;41245;45.384;20.390;2022-09-03T03:53:32;16.10;;;14.40;;
55364;SDS011;41245;45.384;20.390;2022-09-03T03:56:00;16.30;;;12.88;;
55364;SDS011;41245;45.384;20.390;2022-09-03T03:58:28;15.45;;;13.52;;
55364;SDS011;41245;45.384;20.390;2022-09-03T04:01:02;15.35;;;13.75;;
55364;SDS011;41245;45.384;20.390;2022-09-03T04:03:32;13.95;;;12.45;;
55364;SDS011;41245;45.384;20.390;2022-09-03T04:05:58;18.70;;;13.82;;
55364;SDS011;41245;45.384;20.390;2022-09-03T04:08:25;14.77;;;13.25;;
55364;SDS011;41245;45.384;20.390;2022-09-03T04:10:51;21.70;;;13.57;;
55364;SDS011;41245;45.384;20.390;2022-09-03T04:13:17;18.23;;;14.48;;
55364;SDS011;41245;45.384;20.390;2022-09-03T04:15:43;17.10;;;13.73;;
55364;SDS011;41245;45.384;20.390;2022-09-03T04:18:10;18.95;;;14.10;;
55364;SDS011;41245;45.384;20.390;2022-09-03T04:20:36;16.42;;;12.80;;
55364;SDS011;41245;45.384;20.390;2022-09-03T04:23:02;16.23;;;13.98;;
55364;SDS011;41245;45.384;20.390;2022-09-03T04:25:29;21.88;;;14.15;;
55364;SDS011;41245;45.384;20.390;2022-09-03T04:27:55;28.60;;;15.13;;
55364;SDS011;41245;45.384;20.390;2022-09-03T04:30:21;17.15;;;14.10;;
55364;SDS011;41245;45.384;20.390;2022-09-03T04:32:49;16.52;;;13.48;;
55364;SDS011;41245;45.384;20.390;2022-09-03T04:35:23;16.98;;;13.02;;
55364;SDS011;41245;45.384;20.390;2022-09-03T04:37:50;16.90;;;13.70;;
55364;SDS011;41245;45.384;20.390;2022-09-03T04:40:16;18.85;;;14.48;;
55364;SDS011;41245;45.384;20.390;2022-09-03T04:42:42;19.80;;;12.75;;
55364;SDS011;41245;45.384;20.390;2022-09-03T04:45:07;14.00;;;11.63;;
55364;SDS011;41245;45.384;20.390;2022-09-03T04:47:35;22.23;;;13.85;;
55364;SDS011;41245;45.384;20.390;2022-09-03T04:50:01;19.48;;;13.15;;
55364;SDS011;41245;45.384;20.390;2022-09-03T04:52:30;19.95;;;13.63;;
55364;SDS011;41245;45.384;20.390;2022-09-03T04:54:57;19.10;;;12.98;;
55364;SDS011;41245;45.384;20.390;2022-09-03T04:57:23;15.95;;;13.10;;
55364;SDS011;41245;45.384;20.390;2022-09-03T04:59:48;16.73;;;13.80;;
55364;SDS011;41245;45.384;20.390;2022-09-03T05:02:14;15.90;;;12.48;;
55364;SDS011;41245;45.384;20.390;2022-09-03T05:04:40;24.55;;;13.93;;
55364;SDS011;41245;45.384;20.390;2022-09-03T05:07:06;15.32;;;13.73;;
55364;SDS011;41245;45.384;20.390;2022-09-03T05:09:32;20.92;;;13.50;;
55364;SDS011;41245;45.384;20.390;2022-09-03T05:11:58;17.98;;;13.52;;
55364;SDS011;41245;45.384;20.390;2022-09-03T05:14:24;19.88;;;13.88;;
55364;SDS011;41245;45.384;20.390;2022-09-03T05:16:50;19.88;;;14.25;;
55364;SDS011;41245;45.384;20.390;2022-09-03T05:19:16;13.45;;;11.75;;
55364;SDS011;41245;45.384;20.390;2022-09-03T05:21:41;14.43;;;12.15;;
55364;SDS011;41245;45.384;20.390;2022-09-03T05:24:07;15.25;;;12.95;;
55364;SDS011;41245;45.384;20.390;2022-09-03T05:26:35;18.45;;;12.20;;
55364;SDS011;41245;45.384;20.390;2022-09-03T05:29:03;22.45;;;12.32;;
55364;SDS011;41245;45.384;20.390;2022-09-03T05:31:32;12.77;;;11.00;;
55364;SDS011;41245;45.384;20.390;2022-09-03T05:34:00;19.40;;;10.43;;
55364;SDS011;41245;45.384;20.390;2022-09-03T05:36:28;15.27;;;9.25;;
55364;SDS011;41245;45.384;20.390;2022-09-03T05:38:57;12.15;;;9.70;;
55364;SDS011;41245;45.384;20.390;2022-09-03T05:41:23;22.20;;;10.50;;
55364;SDS011;41245;45.384;20.390;2022-09-03T05:43:51;11.52;;;9.63;;
55364;SDS011;41245;45.384;20.390;2022-09-03T05:46:21;11.40;;;9.77;;
55364;SDS011;41245;45.384;20.390;2022-09-03T05:48:54;15.70;;;10.57;;
55364;SDS011;41245;45.384;20.390;2022-09-03T05:51:19;11.07;;;9.63;;
55364;SDS011;41245;45.384;20.390;2022-09-03T05:53:46;11.20;;;8.93;;
55364;SDS011;41245;45.384;20.390;2022-09-03T05:56:13;9.50;;;8.55;;
55364;SDS011;41245;45.384;20.390;2022-09-03T05:58:46;9.75;;;8.70;;
55364;SDS011;41245;45.384;20.390;2022-09-03T06:04:06;10.07;;;7.88;;
55364;SDS011;41245;45.384;20.390;2022-09-03T06:06:36;11.02;;;7.57;;
55364;SDS011;41245;45.384;20.390;2022-09-03T06:09:05;12.43;;;7.45;;
55364;SDS011;41245;45.384;20.390;2022-09-03T06:11:32;11.15;;;8.02;;
55364;SDS011;41245;45.384;20.390;2022-09-03T06:14:00;13.57;;;7.88;;
55364;SDS011;41245;45.384;20.390;2022-09-03T06:16:29;9.52;;;8.13;;
55364;SDS011;41245;45.384;20.390;2022-09-03T06:18:55;9.70;;;8.55;;
55364;SDS011;41245;45.384;20.390;2022-09-03T06:21:21;13.15;;;9.30;;
55364;SDS011;41245;45.384;20.390;2022-09-03T06:23:51;11.60;;;8.02;;
55364;SDS011;41245;45.384;20.390;2022-09-03T06:26:21;13.27;;;8.93;;
55364;SDS011;41245;45.384;20.390;2022-09-03T06:28:47;11.05;;;7.32;;
55364;SDS011;41245;45.384;20.390;2022-09-03T06:31:17;7.43;;;6.72;;
55364;SDS011;41245;45.384;20.390;2022-09-03T06:33:44;10.65;;;7.75;;
55364;SDS011;41245;45.384;20.390;2022-09-03T06:36:12;8.25;;;6.72;;
55364;SDS011;41245;45.384;20.390;2022-09-03T06:38:42;7.68;;;6.72;;
55364;SDS011;41245;45.384;20.390;2022-09-03T06:41:11;8.27;;;6.43;;
55364;SDS011;41245;45.384;20.390;2022-09-03T06:43:45;8.02;;;6.75;;
55364;SDS011;41245;45.384;20.390;2022-09-03T06:46:13;11.48;;;7.68;;
55364;SDS011;41245;45.384;20.390;2022-09-03T06:48:40;9.23;;;6.72;;
55364;SDS011;41245;45.384;20.390;2022-09-03T06:51:07;8.63;;;6.20;;
55364;SDS011;41245;45.384;20.390;2022-09-03T06:53:36;11.88;;;7.15;;
55364;SDS011;41245;45.384;20.390;2022-09-03T06:56:13;11.35;;;7.82;;
55364;SDS011;41245;45.384;20.390;2022-09-03T06:58:46;11.23;;;8.73;;
55364;SDS011;41245;45.384;20.390;2022-09-03T07:01:19;8.68;;;7.75;;
55364;SDS011;41245;45.384;20.390;2022-09-03T07:03:50;12.18;;;8.63;;
55364;SDS011;41245;45.384;20.390;2022-09-03T07:06:20;18.13;;;9.77;;
55364;SDS011;41245;45.384;20.390;2022-09-03T07:08:47;12.32;;;8.45;;
55364;SDS011;41245;45.384;20.390;2022-09-03T07:11:13;7.72;;;6.82;;
55364;SDS011;41245;45.384;20.390;2022-09-03T07:13:44;9.80;;;6.57;;
55364;SDS011;41245;45.384;20.390;2022-09-03T07:18:40;7.38;;;4.72;;
55364;SDS011;41245;45.384;20.390;2022-09-03T07:21:11;6.90;;;4.80;;
55364;SDS011;41245;45.384;20.390;2022-09-03T07:23:39;9.20;;;7.63;;
55364;SDS011;41245;45.384;20.390;2022-09-03T07:26:09;8.20;;;7.35;;
55364;SDS011;41245;45.384;20.390;2022-09-03T07:28:38;13.32;;;7.95;;
55364;SDS011;41245;45.384;20.390;2022-09-03T07:31:06;9.25;;;6.07;;
55364;SDS011;41245;45.384;20.390;2022-09-03T07:33:49;4.15;;;3.08;;
55364;SDS011;41245;45.384;20.390;2022-09-03T07:36:20;3.90;;;3.50;;
55364;SDS011;41245;45.384;20.390;2022-09-03T07:38:47;4.45;;;3.85;;
55364;SDS011;41245;45.384;20.390;2022-09-03T07:41:13;6.05;;;3.38;;
55364;SDS011;41245;45.384;20.390;2022-09-03T07:43:40;6.07;;;2.90;;
55364;SDS011;41245;45.384;20.390;2022-09-03T07:46:08;3.95;;;2.53;;
55364;SDS011;41245;45.384;20.390;2022-09-03T07:48:37;4.97;;;2.60;;
55364;SDS011;41245;45.384;20.390;2022-09-03T07:51:07;6.70;;;2.90;;
55364;SDS011;41245;45.384;20.390;2022-09-03T07:53:33;4.03;;;3.50;;
55364;SDS011;41245;45.384;20.390;2022-09-03T07:56:00;7.80;;;3.70;;
55364;SDS011;41245;45.384;20.390;2022-09-03T07:58:28;5.85;;;3.30;;
55364;SDS011;41245;45.384;20.390;2022-09-03T08:00:55;6.75;;;3.10;;
55364;SDS011;41245;45.384;20.390;2022-09-03T08:03:21;5.30;;;3.50;;
55364;SDS011;41245;45.384;20.390;2022-09-03T08:05:47;6.10;;;2.78;;
55364;SDS011;41245;45.384;20.390;2022-09-03T08:08:12;8.38;;;3.53;;
55364;SDS011;41245;45.384;20.390;2022-09-03T08:10:39;6.15;;;2.97;;
55364;SDS011;41245;45.384;20.390;2022-09-03T08:13:05;9.13;;;4.63;;
55364;SDS011;41245;45.384;20.390;2022-09-03T08:15:32;5.82;;;4.03;;
55364;SDS011;41245;45.384;20.390;2022-09-03T08:17:58;6.43;;;3.70;;
55364;SDS011;41245;45.384;20.390;2022-09-03T08:20:27;3.97;;;3.58;;
55364;SDS011;41245;45.384;20.390;2022-09-03T08:22:59;6.75;;;3.95;;
55364;SDS011;41245;45.384;20.390;2022-09-03T08:25:26;14.40;;;4.22;;
55364;SDS011;41245;45.384;20.390;2022-09-03T08:27:52;4.20;;;3.22;;
55364;SDS011;41245;45.384;20.390;2022-09-03T08:30:18;3.72;;;3.28;;
55364;SDS011;41245;45.384;20.390;2022-09-03T08:32:45;5.75;;;3.65;;
55364;SDS011;41245;45.384;20.390;2022-09-03T08:35:11;6.40;;;3.40;;
55364;SDS011;41245;45.384;20.390;2022-09-03T08:37:37;8.80;;;4.13;;
55364;SDS011;41245;45.384;20.390;2022-09-03T08:40:03;5.65;;;4.00;;
55364;SDS011;41245;45.384;20.390;2022-09-03T08:42:32;4.38;;;3.50;;
55364;SDS011;41245;45.384;20.390;2022-09-03T08:45:20;5.32;;;4.05;;
55364;SDS011;41245;45.384;20.390;2022-09-03T08:47:47;6.53;;;4.53;;
55364;SDS011;41245;45.384;20.390;2022-09-03T08:50:39;6.00;;;4.25;;
55364;SDS011;41245;45.384;20.390;2022-09-03T08:55:54;8.88;;;4.38;;
55364;SDS011;41245;45.384;20.390;2022-09-03T08:58:25;6.97;;;4.57;;
55364;SDS011;41245;45.384;20.390;2022-09-03T09:00:56;12.23;;;4.55;;
55364;SDS011;41245;45.384;20.390;2022-09-03T09:09:34;6.20;;;5.05;;
55364;SDS011;41245;45.384;20.390;2022-09-03T09:26:17;9.07;;;6.22;;
55364;SDS011;41245;45.384;20.390;2022-09-03T09:28:46;9.60;;;5.70;;
55364;SDS011;41245;45.384;20.390;2022-09-03T09:31:30;7.55;;;4.80;;
55364;SDS011;41245;45.384;20.390;2022-09-03T09:34:02;9.20;;;4.78;;
55364;SDS011;41245;45.384;20.390;2022-09-03T09:36:31;9.68;;;4.65;;
55364;SDS011;41245;45.384;20.390;2022-09-03T09:39:13;9.68;;;5.00;;
55364;SDS011;41245;45.384;20.390;2022-09-03T09:44:20;7.53;;;5.07;;
55364;SDS011;41245;45.384;20.390;2022-09-03T09:46:46;5.88;;;5.28;;
55364;SDS011;41245;45.384;20.390;2022-09-03T09:49:24;6.25;;;4.07;;
55364;SDS011;41245;45.384;20.390;2022-09-03T09:54:36;6.32;;;4.55;;
55364;SDS011;41245;45.384;20.390;2022-09-03T09:57:04;7.20;;;4.57;;
55364;SDS011;41245;45.384;20.390;2022-09-03T09:59:32;8.52;;;4.68;;
55364;SDS011;41245;45.384;20.390;2022-09-03T10:02:19;5.80;;;4.57;;
55364;SDS011;41245;45.384;20.390;2022-09-03T10:04:53;8.82;;;3.83;;
55364;SDS011;41245;45.384;20.390;2022-09-03T10:07:28;5.60;;;4.18;;
55364;SDS011;41245;45.384;20.390;2022-09-03T10:09:58;8.48;;;5.13;;
55364;SDS011;41245;45.384;20.390;2022-09-03T10:12:30;6.15;;;3.20;;
55364;SDS011;41245;45.384;20.390;2022-09-03T10:15:21;4.28;;;3.28;;
55364;SDS011;41245;45.384;20.390;2022-09-03T10:23:39;7.30;;;3.10;;
55364;SDS011;41245;45.384;20.390;2022-09-03T10:26:12;3.90;;;3.50;;
55364;SDS011;41245;45.384;20.390;2022-09-03T10:28:41;4.45;;;3.75;;
55364;SDS011;41245;45.384;20.390;2022-09-03T10:33:45;5.75;;;3.85;;
55364;SDS011;41245;45.384;20.390;2022-09-03T10:38:43;4.95;;;3.47;;
55364;SDS011;41245;45.384;20.390;2022-09-03T10:52:27;5.57;;;4.28;;
55364;SDS011;41245;45.384;20.390;2022-09-03T10:58:03;6.88;;;3.95;;
55364;SDS011;41245;45.384;20.390;2022-09-03T11:00:58;4.45;;;3.40;;
55364;SDS011;41245;45.384;20.390;2022-09-03T11:06:07;4.47;;;3.45;;
55364;SDS011;41245;45.384;20.390;2022-09-03T11:11:52;5.22;;;3.42;;
55364;SDS011;41245;45.384;20.390;2022-09-03T11:14:35;3.33;;;3.03;;
55364;SDS011;41245;45.384;20.390;2022-09-03T11:17:33;3.33;;;3.00;;
55364;SDS011;41245;45.384;20.390;2022-09-03T11:22:42;5.63;;;3.97;;
55364;SDS011;41245;45.384;20.390;2022-09-03T11:25:10;3.88;;;3.47;;
55364;SDS011;41245;45.384;20.390;2022-09-03T11:27:52;4.33;;;3.93;;
55364;SDS011;41245;45.384;20.390;2022-09-03T11:30:46;4.43;;;3.30;;
55364;SDS011;41245;45.384;20.390;2022-09-03T11:33:22;5.10;;;3.42;;
55364;SDS011;41245;45.384;20.390;2022-09-03T11:35:59;8.48;;;3.67;;
55364;SDS011;41245;45.384;20.390;2022-09-03T11:38:26;4.60;;;3.55;;
55364;SDS011;41245;45.384;20.390;2022-09-03T11:41:03;4.45;;;3.25;;
55364;SDS011;41245;45.384;20.390;2022-09-03T11:43:38;22.17;;;4.07;;
55364;SDS011;41245;45.384;20.390;2022-09-03T11:48:37;5.88;;;3.22;;
55364;SDS011;41245;45.384;20.390;2022-09-03T11:51:16;7.30;;;3.85;;
55364;SDS011;41245;45.384;20.390;2022-09-03T11:56:32;5.35;;;4.07;;
55364;SDS011;41245;45.384;20.390;2022-09-03T12:01:27;3.42;;;3.13;;
55364;SDS011;41245;45.384;20.390;2022-09-03T12:04:04;5.82;;;3.50;;
55364;SDS011;41245;45.384;20.390;2022-09-03T12:12:00;5.15;;;3.28;;
55364;SDS011;41245;45.384;20.390;2022-09-03T12:20:12;2.70;;;2.50;;
55364;SDS011;41245;45.384;20.390;2022-09-03T12:22:40;4.53;;;2.92;;
55364;SDS011;41245;45.384;20.390;2022-09-03T12:25:07;3.85;;;2.80;;
55364;SDS011;41245;45.384;20.390;2022-09-03T12:27:37;3.92;;;2.95;;
55364;SDS011;41245;45.384;20.390;2022-09-03T12:30:14;5.57;;;3.35;;
55364;SDS011;41245;45.384;20.390;2022-09-03T12:32:42;5.18;;;2.90;;
55364;SDS011;41245;45.384;20.390;2022-09-03T12:37:40;4.47;;;3.10;;
55364;SDS011;41245;45.384;20.390;2022-09-03T12:40:15;3.30;;;2.97;;
55364;SDS011;41245;45.384;20.390;2022-09-03T12:42:52;6.22;;;2.97;;
55364;SDS011;41245;45.384;20.390;2022-09-03T12:45:19;3.13;;;2.90;;
55364;SDS011;41245;45.384;20.390;2022-09-03T12:47:50;4.80;;;2.92;;
55364;SDS011;41245;45.384;20.390;2022-09-03T12:50:18;7.55;;;2.80;;
55364;SDS011;41245;45.384;20.390;2022-09-03T12:58:08;3.30;;;2.90;;
55364;SDS011;41245;45.384;20.390;2022-09-03T13:00:42;3.75;;;2.70;;
55364;SDS011;41245;45.384;20.390;2022-09-03T13:03:17;4.50;;;2.95;;
55364;SDS011;41245;45.384;20.390;2022-09-03T13:05:48;6.03;;;2.75;;
55364;SDS011;41245;45.384;20.390;2022-09-03T13:08:22;3.55;;;2.20;;
55364;SDS011;41245;45.384;20.390;2022-09-03T13:10:52;4.78;;;2.65;;
55364;SDS011;41245;45.384;20.390;2022-09-03T13:13:24;3.05;;;2.80;;
55364;SDS011;41245;45.384;20.390;2022-09-03T13:18:37;3.95;;;2.70;;
55364;SDS011;41245;45.384;20.390;2022-09-03T13:24:43;2.95;;;2.65;;
55364;SDS011;41245;45.384;20.390;2022-09-03T13:28:02;4.68;;;2.40;;
55364;SDS011;41245;45.384;20.390;2022-09-03T13:30:33;4.97;;;2.72;;
55364;SDS011;41245;45.384;20.390;2022-09-03T13:33:47;3.35;;;2.55;;
55364;SDS011;41245;45.384;20.390;2022-09-03T13:36:16;4.85;;;2.65;;
55364;SDS011;41245;45.384;20.390;2022-09-03T13:38:59;2.50;;;2.30;;
55364;SDS011;41245;45.384;20.390;2022-09-03T13:46:53;6.10;;;2.33;;
55364;SDS011;41245;45.384;20.390;2022-09-03T13:50:09;2.47;;;1.98;;
55364;SDS011;41245;45.384;20.390;2022-09-03T13:55:24;6.93;;;3.78;;
55364;SDS011;41245;45.384;20.390;2022-09-03T13:58:34;4.03;;;2.55;;
55364;SDS011;41245;45.384;20.390;2022-09-03T14:03:56;5.00;;;2.90;;
55364;SDS011;41245;45.384;20.390;2022-09-03T14:18:12;3.78;;;2.75;;
55364;SDS011;41245;45.384;20.390;2022-09-03T14:21:00;2.40;;;2.20;;
55364;SDS011;41245;45.384;20.390;2022-09-03T14:23:48;5.28;;;2.15;;
55364;SDS011;41245;45.384;20.390;2022-09-03T14:26:29;2.70;;;1.95;;
55364;SDS011;41245;45.384;20.390;2022-09-03T14:37:06;2.40;;;2.10;;
55364;SDS011;41245;45.384;20.390;2022-09-03T14:39:54;2.80;;;2.17;;
55364;SDS011;41245;45.384;20.390;2022-09-03T14:45:22;2.88;;;2.17;;
55364;SDS011;41245;45.384;20.390;2022-09-03T14:53:39;3.85;;;2.55;;
55364;SDS011;41245;45.384;20.390;2022-09-03T14:56:24;2.83;;;2.08;;
55364;SDS011;41245;45.384;20.390;2022-09-03T15:05:26;2.05;;;1.85;;
55364;SDS011;41245;45.384;20.390;2022-09-03T15:07:55;23.17;;;16.85;;
55364;SDS011;41245;45.384;20.390;2022-09-03T15:13:11;2.70;;;2.30;;
55364;SDS011;41245;45.384;20.390;2022-09-03T15:18:45;3.17;;;2.05;;
55364;SDS011;41245;45.384;20.390;2022-09-03T15:24:22;4.97;;;2.42;;
55364;SDS011;41245;45.384;20.390;2022-09-03T15:27:05;3.05;;;2.80;;
55364;SDS011;41245;45.384;20.390;2022-09-03T15:41:58;5.03;;;4.43;;
55364;SDS011;41245;45.384;20.390;2022-09-03T15:44:26;9.27;;;6.00;;
55364;SDS011;41245;45.384;20.390;2022-09-03T15:47:11;3.88;;;2.70;;
55364;SDS011;41245;45.384;20.390;2022-09-03T15:49:54;5.20;;;3.38;;
55364;SDS011;41245;45.384;20.390;2022-09-03T15:52:40;7.50;;;3.13;;
55364;SDS011;41245;45.384;20.390;2022-09-03T15:55:25;6.35;;;2.88;;
55364;SDS011;41245;45.384;20.390;2022-09-03T16:00:54;2.47;;;2.10;;
55364;SDS011;41245;45.384;20.390;2022-09-03T16:12:33;5.25;;;4.75;;
55364;SDS011;41245;45.384;20.390;2022-09-03T16:15:06;8.65;;;4.60;;
55364;SDS011;41245;45.384;20.390;2022-09-03T16:17:42;5.53;;;5.00;;
55364;SDS011;41245;45.384;20.390;2022-09-03T16:25:59;10.30;;;3.08;;
55364;SDS011;41245;45.384;20.390;2022-09-03T16:28:42;2.63;;;2.28;;
55364;SDS011;41245;45.384;20.390;2022-09-03T16:42:16;2.70;;;2.28;;
55364;SDS011;41245;45.384;20.390;2022-09-03T16:45:00;4.95;;;2.97;;
55364;SDS011;41245;45.384;20.390;2022-09-03T16:47:41;2.53;;;1.98;;
55364;SDS011;41245;45.384;20.390;2022-09-03T17:01:20;3.30;;;3.00;;
55364;SDS011;41245;45.384;20.390;2022-09-03T17:09:18;8.57;;;3.17;;
55364;SDS011;41245;45.384;20.390;2022-09-03T17:12:23;10.63;;;3.83;;
55364;SDS011;41245;45.384;20.390;2022-09-03T17:17:50;10.85;;;4.45;;
55364;SDS011;41245;45.384;20.390;2022-09-03T17:47:56;16.95;;;8.60;;
55364;SDS011;41245;45.384;20.390;2022-09-03T17:51:11;33.65;;;26.15;;
55364;SDS011;41245;45.384;20.390;2022-09-03T17:56:00;37.55;;;22.15;;
55364;SDS011;41245;45.384;20.390;2022-09-03T17:58:34;21.67;;;17.85;;
55364;SDS011;41245;45.384;20.390;2022-09-03T18:01:23;18.65;;;14.40;;
55364;SDS011;41245;45.384;20.390;2022-09-03T18:03:59;22.80;;;17.50;;
55364;SDS011;41245;45.384;20.390;2022-09-03T18:12:05;11.73;;;10.48;;
55364;SDS011;41245;45.384;20.390;2022-09-03T18:14:53;14.98;;;9.75;;
55364;SDS011;41245;45.384;20.390;2022-09-03T18:17:34;8.60;;;7.70;;
55364;SDS011;41245;45.384;20.390;2022-09-03T18:20:06;10.60;;;7.75;;
55364;SDS011;41245;45.384;20.390;2022-09-03T18:22:58;9.60;;;5.40;;
55364;SDS011;41245;45.384;20.390;2022-09-03T18:26:10;10.63;;;5.18;;
55364;SDS011;41245;45.384;20.390;2022-09-03T18:31:48;8.95;;;6.22;;
55364;SDS011;41245;45.384;20.390;2022-09-03T18:34:32;9.50;;;6.35;;
55364;SDS011;41245;45.384;20.390;2022-09-03T18:37:23;11.18;;;5.80;;
55364;SDS011;41245;45.384;20.390;2022-09-03T18:40:11;7.47;;;4.93;;
55364;SDS011;41245;45.384;20.390;2022-09-03T18:46:01;11.70;;;4.75;;
55364;SDS011;41245;45.384;20.390;2022-09-03T18:49:40;4.10;;;3.70;;
55364;SDS011;41245;45.384;20.390;2022-09-03T18:55:40;5.03;;;4.32;;
55364;SDS011;41245;45.384;20.390;2022-09-03T18:58:51;4.60;;;4.15;;
55364;SDS011;41245;45.384;20.390;2022-09-03T19:01:49;8.70;;;4.60;;
55364;SDS011;41245;45.384;20.390;2022-09-03T19:22:31;9.35;;;5.15;;
55364;SDS011;41245;45.384;20.390;2022-09-03T19:25:21;20.45;;;7.15;;
55364;SDS011;41245;45.384;20.390;2022-09-03T19:28:23;7.75;;;5.88;;
55364;SDS011;41245;45.384;20.390;2022-09-03T19:37:28;7.72;;;5.30;;
55364;SDS011;41245;45.384;20.390;2022-09-03T19:55:40;8.77;;;6.28;;
55364;SDS011;41245;45.384;20.390;2022-09-03T19:58:28;7.47;;;6.00;;
55364;SDS011;41245;45.384;20.390;2022-09-03T20:01:14;11.35;;;6.00;;
55364;SDS011;41245;45.384;20.390;2022-09-03T20:04:03;6.60;;;5.93;;
55364;SDS011;41245;45.384;20.390;2022-09-03T20:06:59;8.70;;;5.47;;
55364;SDS011;41245;45.384;20.390;2022-09-03T20:09:47;8.80;;;6.35;;
55364;SDS011;41245;45.384;20.390;2022-09-03T20:12:34;8.65;;;6.70;;
55364;SDS011;41245;45.384;20.390;2022-09-03T20:15:05;10.40;;;7.50;;
55364;SDS011;41245;45.384;20.390;2022-09-03T20:17:49;11.20;;;7.65;;
55364;SDS011;41245;45.384;20.390;2022-09-03T20:20:40;16.00;;;7.55;;
55364;SDS011;41245;45.384;20.390;2022-09-03T20:23:47;14.98;;;7.43;;
55364;SDS011;41245;45.384;20.390;2022-09-03T20:31:55;17.38;;;7.82;;
55364;SDS011;41245;45.384;20.390;2022-09-03T20:37:11;6.60;;;5.63;;
55364;SDS011;41245;45.384;20.390;2022-09-03T20:45:14;10.20;;;6.07;;
55364;SDS011;41245;45.384;20.390;2022-09-03T20:48:07;13.32;;;7.25;;
55364;SDS011;41245;45.384;20.390;2022-09-03T20:50:56;7.82;;;7.00;;
55364;SDS011;41245;45.384;20.390;2022-09-03T20:56:10;7.40;;;6.00;;
55364;SDS011;41245;45.384;20.390;2022-09-03T20:59:09;7.72;;;6.93;;
55364;SDS011;41245;45.384;20.390;2022-09-03T21:07:10;11.02;;;6.75;;
55364;SDS011;41245;45.384;20.390;2022-09-03T21:09:54;12.43;;;7.28;;
55364;SDS011;41245;45.384;20.390;2022-09-03T21:15:29;9.18;;;7.22;;
55364;SDS011;41245;45.384;20.390;2022-09-03T21:24:06;12.10;;;7.68;;
55364;SDS011;41245;45.384;20.390;2022-09-03T21:26:39;12.43;;;8.82;;
55364;SDS011;41245;45.384;20.390;2022-09-03T21:31:50;9.27;;;8.32;;
55364;SDS011;41245;45.384;20.390;2022-09-03T21:34:18;10.90;;;8.32;;